Time;durP1;ratioP1;P1;durP2;ratioP2;P2;SDS_P1;SDS_P2;PMS_P1;PMS_P2;Temp;Humidity;BMP_temperature;BMP_pressure;BME280_temperature;BME280_humidity;BME280_pressure;Samples;Min_cycle;Max_cycle;Signal;HPM_P1;HPM_P2
2021/09/24 04:01:16;;;;;;;14.20;2.60;;;11.30;99.90;;;;;;5553026;23;20668;-72
2021/09/24 04:03:43;;;;;;;9.77;2.95;;;11.30;99.90;;;;;;4919298;29;20207;-71
2021/09/24 04:06:10;;;;;;;19.20;4.15;;;11.30;99.90;;;;;;4930613;28;20224;-71
2021/09/24 04:08:37;;;;;;;9.38;2.83;;;11.30;99.90;;;;;;4937246;29;20288;-72
2021/09/24 04:11:03;;;;;;;18.23;3.65;;;11.30;99.90;;;;;;4937562;29;20230;-72
2021/09/24 04:13:30;;;;;;;11.20;2.90;;;11.30;99.90;;;;;;4937225;29;20281;-72
2021/09/24 04:15:57;;;;;;;9.90;3.65;;;11.20;99.90;;;;;;4937233;29;20229;-72
2021/09/24 04:18:25;;;;;;;10.88;3.72;;;11.30;99.90;;;;;;4928667;29;20218;-72
2021/09/24 04:20:52;;;;;;;9.77;2.92;;;11.20;99.90;;;;;;4918305;29;20238;-72
2021/09/24 04:23:18;;;;;;;7.57;3.17;;;11.20;99.90;;;;;;4917940;29;20211;-72
2021/09/24 04:25:47;;;;;;;21.10;3.60;;;11.20;99.90;;;;;;4918541;29;20233;-71
2021/09/24 04:28:14;;;;;;;17.75;3.15;;;11.20;99.90;;;;;;4918205;29;20238;-71
2021/09/24 04:30:40;;;;;;;15.82;3.40;;;11.10;99.90;;;;;;4918078;29;20291;-71
2021/09/24 04:33:07;;;;;;;17.45;3.05;;;11.10;99.90;;;;;;4916987;29;20211;-71
2021/09/24 04:35:35;;;;;;;11.25;4.30;;;11.10;99.90;;;;;;4917755;29;20290;-72
2021/09/24 04:38:02;;;;;;;10.85;3.65;;;11.10;99.90;;;;;;4918204;29;20254;-71
2021/09/24 04:40:28;;;;;;;14.15;3.50;;;11.10;99.90;;;;;;4917845;29;20679;-71
2021/09/24 04:42:55;;;;;;;11.20;3.60;;;11.10;99.90;;;;;;4917619;29;20230;-71
2021/09/24 04:45:22;;;;;;;12.73;3.17;;;11.10;99.90;;;;;;4917777;29;20246;-71
2021/09/24 04:47:49;;;;;;;18.02;5.18;;;11.10;99.90;;;;;;4917827;29;20266;-71
2021/09/24 04:50:15;;;;;;;11.48;3.15;;;11.10;99.90;;;;;;4917576;29;20686;-71
2021/09/24 04:52:43;;;;;;;12.02;3.60;;;11.10;99.90;;;;;;4917373;29;20214;-71
2021/09/24 04:55:11;;;;;;;13.65;3.65;;;11.10;99.90;;;;;;4917743;29;20238;-70
2021/09/24 04:57:38;;;;;;;17.50;4.43;;;11.10;99.90;;;;;;4917335;29;20214;-71
2021/09/24 05:00:07;;;;;;;10.77;4.10;;;11.10;99.90;;;;;;4917817;29;20218;-71
2021/09/24 05:02:34;;;;;;;15.50;4.38;;;11.10;99.90;;;;;;4916488;29;20218;-71
2021/09/24 05:05:01;;;;;;;26.45;4.25;;;11.10;99.90;;;;;;4917782;29;20636;-73
2021/09/24 05:07:28;;;;;;;21.27;5.10;;;11.10;99.90;;;;;;4917446;29;20218;-72
2021/09/24 05:09:56;;;;;;;16.55;6.10;;;11.10;99.90;;;;;;4917546;29;20218;-71
2021/09/24 05:12:22;;;;;;;9.23;4.88;;;11.10;99.90;;;;;;4917443;29;20796;-73
2021/09/24 05:14:49;;;;;;;12.15;5.60;;;11.10;99.90;;;;;;4917356;29;20334;-73
2021/09/24 05:17:16;;;;;;;16.08;5.85;;;11.10;99.90;;;;;;4916705;29;20226;-72
2021/09/24 05:19:42;;;;;;;11.13;4.70;;;11.10;99.90;;;;;;4916961;29;20218;-73
2021/09/24 05:22:09;;;;;;;15.60;5.55;;;11.10;99.90;;;;;;4917496;29;20333;-72
2021/09/24 05:24:36;;;;;;;12.75;5.22;;;11.10;99.90;;;;;;4917095;29;20214;-72
2021/09/24 05:27:04;;;;;;;14.63;5.63;;;11.10;99.90;;;;;;4917236;29;20242;-73
2021/09/24 05:29:31;;;;;;;14.38;5.13;;;11.10;99.90;;;;;;4917505;29;20282;-73
2021/09/24 05:31:58;;;;;;;22.85;6.57;;;11.10;99.90;;;;;;4916330;29;20305;-73
2021/09/24 05:34:25;;;;;;;18.98;6.32;;;11.20;99.90;;;;;;4916581;29;20606;-75
2021/09/24 05:36:51;;;;;;;18.40;4.85;;;11.20;99.90;;;;;;4918136;29;20604;-73
2021/09/24 05:39:19;;;;;;;14.25;4.90;;;11.20;99.90;;;;;;4917171;29;20316;-73
2021/09/24 05:41:46;;;;;;;10.25;5.18;;;11.30;99.90;;;;;;4917075;29;20236;-73
2021/09/24 05:44:14;;;;;;;11.00;4.63;;;11.40;99.90;;;;;;4916459;29;20606;-74
2021/09/24 05:46:41;;;;;;;18.17;5.85;;;11.40;99.90;;;;;;4916783;29;20210;-73
2021/09/24 05:49:08;;;;;;;12.68;4.70;;;11.40;99.90;;;;;;4915821;29;20225;-73
2021/09/24 05:51:34;;;;;;;15.77;5.47;;;11.50;99.90;;;;;;4917039;29;20242;-73
2021/09/24 05:54:01;;;;;;;6.45;4.20;;;11.50;99.90;;;;;;4915450;29;20218;-73
2021/09/24 05:56:28;;;;;;;17.95;4.75;;;11.60;99.90;;;;;;4916743;29;20278;-74
2021/09/24 05:58:55;;;;;;;17.88;4.63;;;11.60;99.90;;;;;;4916644;29;20250;-73
2021/09/24 06:01:23;;;;;;;11.90;4.03;;;11.60;99.90;;;;;;4916670;29;20242;-73
2021/09/24 06:03:50;;;;;;;9.32;3.42;;;11.60;99.90;;;;;;4915463;29;20262;-72
2021/09/24 06:06:16;;;;;;;12.20;4.35;;;11.60;99.90;;;;;;4916590;29;20206;-70
2021/09/24 06:08:43;;;;;;;18.38;3.70;;;11.60;99.90;;;;;;4916223;29;20219;-71
2021/09/24 06:11:10;;;;;;;9.98;3.88;;;11.70;99.90;;;;;;4916194;29;20546;-71
2021/09/24 06:13:36;;;;;;;10.77;4.40;;;11.70;99.90;;;;;;4915898;29;20745;-72
2021/09/24 06:16:03;;;;;;;15.75;3.95;;;11.80;99.90;;;;;;4916446;29;20230;-71
2021/09/24 06:18:33;;;;;;;14.50;4.47;;;11.90;99.90;;;;;;4915745;29;20214;-72
2021/09/24 06:21:02;;;;;;;13.20;4.05;;;11.90;99.90;;;;;;4916273;29;20261;-72
2021/09/24 06:23:28;;;;;;;10.32;3.80;;;12.00;99.90;;;;;;4916010;29;20217;-72
2021/09/24 06:25:58;;;;;;;7.10;3.08;;;12.10;99.90;;;;;;4916203;29;20636;-72
2021/09/24 06:28:25;;;;;;;14.90;3.22;;;12.20;99.90;;;;;;4916080;29;20243;-72
2021/09/24 06:30:52;;;;;;;20.97;3.83;;;12.30;99.90;;;;;;4916429;29;20230;-72
2021/09/24 06:33:18;;;;;;;7.47;2.90;;;12.50;99.90;;;;;;4915183;29;20470;-73
2021/09/24 06:35:46;;;;;;;7.37;4.20;;;12.50;99.90;;;;;;4916587;29;20497;-72
2021/09/24 06:38:13;;;;;;;9.07;3.30;;;12.60;99.90;;;;;;4916356;29;20545;-72
2021/09/24 06:40:40;;;;;;;8.77;3.50;;;12.70;99.90;;;;;;4915865;29;20975;-72
2021/09/24 06:43:06;;;;;;;10.73;3.13;;;12.70;99.90;;;;;;4915885;29;20470;-72
2021/09/24 06:45:33;;;;;;;12.93;3.90;;;12.80;99.90;;;;;;4916275;29;20474;-72
2021/09/24 06:48:00;;;;;;;5.40;3.30;;;12.90;99.90;;;;;;4915362;29;20561;-71
2021/09/24 06:50:27;;;;;;;14.33;3.30;;;13.00;99.90;;;;;;4916018;29;20490;-71
2021/09/24 06:52:55;;;;;;;6.47;3.30;;;13.00;99.90;;;;;;4915977;29;20814;-71
2021/09/24 06:55:25;;;;;;;9.73;3.90;;;13.10;99.90;;;;;;4915686;29;20489;-72
2021/09/24 06:57:52;;;;;;;9.07;2.67;;;13.10;99.90;;;;;;4916082;29;20831;-72
2021/09/24 07:00:19;;;;;;;10.17;3.20;;;13.20;99.90;;;;;;4915745;29;21002;-72
2021/09/24 07:02:46;;;;;;;3.90;2.73;;;13.20;99.90;;;;;;4915124;29;20904;-72
2021/09/24 07:05:13;;;;;;;8.40;3.40;;;13.30;99.90;;;;;;4915787;29;20518;-72
2021/09/24 07:07:41;;;;;;;6.90;3.03;;;13.30;99.90;;;;;;4915107;29;20477;-72
2021/09/24 07:10:10;;;;;;;15.60;4.40;;;13.40;99.90;;;;;;4915990;29;20466;-72
2021/09/24 07:12:37;;;;;;;5.97;3.97;;;13.40;99.90;;;;;;4915580;29;20522;-72
2021/09/24 07:15:05;;;;;;;8.80;3.53;;;13.50;99.90;;;;;;4915585;29;20474;-72
2021/09/24 07:17:32;;;;;;;9.73;4.13;;;13.50;99.90;;;;;;4915162;29;20467;-72
2021/09/24 07:19:59;;;;;;;10.00;4.70;;;13.60;99.90;;;;;;4915580;29;20525;-72
2021/09/24 07:22:26;;;;;;;5.90;5.33;;;13.60;99.90;;;;;;4918718;29;20641;-72
2021/09/24 07:24:54;;;;;;;13.93;5.63;;;13.60;99.90;;;;;;4919535;29;20877;-72
2021/09/24 07:27:22;;;;;;;13.97;5.90;;;13.70;99.90;;;;;;4919056;29;20482;-71
2021/09/24 07:29:50;;;;;;;13.30;5.57;;;13.70;99.90;;;;;;4919281;29;20470;-71
2021/09/24 07:32:17;;;;;;;9.57;6.20;;;13.70;99.90;;;;;;4918310;29;20492;-76
2021/09/24 07:34:43;;;;;;;9.30;5.57;;;13.70;99.90;;;;;;4918975;29;20541;-72
2021/09/24 07:37:10;;;;;;;16.47;7.87;;;13.70;99.90;;;;;;4918927;29;20573;-71
2021/09/24 07:39:38;;;;;;;12.73;6.30;;;13.80;99.90;;;;;;4918395;29;20828;-72
2021/09/24 07:42:05;;;;;;;12.13;6.30;;;13.80;99.90;;;;;;4918784;29;20490;-72
2021/09/24 07:44:33;;;;;;;11.53;6.67;;;13.90;99.90;;;;;;4919036;29;20604;-72
2021/09/24 07:47:00;;;;;;;8.40;6.17;;;14.00;99.90;;;;;;4918587;29;20498;-71
2021/09/24 07:49:27;;;;;;;9.17;6.50;;;14.10;99.90;;;;;;4918324;29;20494;-73
2021/09/24 07:51:54;;;;;;;8.33;7.53;;;14.20;99.90;;;;;;4918714;29;20498;-74
2021/09/24 07:54:21;;;;;;;10.43;5.70;;;14.30;99.90;;;;;;4918695;29;20538;-74
2021/09/24 07:56:48;;;;;;;9.40;5.67;;;14.50;99.90;;;;;;4918866;29;20537;-73
2021/09/24 07:59:15;;;;;;;8.73;5.40;;;14.60;99.90;;;;;;4918906;29;20470;-72
2021/09/24 08:01:43;;;;;;;9.27;5.53;;;14.70;99.90;;;;;;4918607;29;20490;-72
2021/09/24 08:04:09;;;;;;;10.50;6.20;;;14.80;99.90;;;;;;4916985;29;20486;-72
2021/09/24 08:06:36;;;;;;;5.47;4.97;;;15.00;99.90;;;;;;4918500;29;20882;-72
2021/09/24 08:09:03;;;;;;;8.20;5.10;;;15.10;99.90;;;;;;4918448;29;20577;-71
2021/09/24 08:11:30;;;;;;;8.17;4.50;;;15.20;99.90;;;;;;4918251;29;20577;-70
2021/09/24 08:13:57;;;;;;;6.90;4.70;;;15.30;99.90;;;;;;4918459;29;20538;-70
2021/09/24 08:16:24;;;;;;;4.97;4.57;;;15.40;99.90;;;;;;4918432;29;20490;-70
2021/09/24 08:18:52;;;;;;;5.70;4.30;;;15.40;99.90;;;;;;4917283;29;20545;-70
2021/09/24 08:21:21;;;;;;;7.50;4.53;;;15.50;99.90;;;;;;4918389;29;20522;-70
2021/09/24 08:23:48;;;;;;;8.30;4.70;;;15.60;99.90;;;;;;4917977;29;20466;-70
2021/09/24 08:26:16;;;;;;;6.20;3.93;;;15.60;99.90;;;;;;4918362;29;20457;-70
2021/09/24 08:28:42;;;;;;;6.63;3.80;;;15.50;99.90;;;;;;4917734;29;20486;-70
2021/09/24 08:31:09;;;;;;;6.57;3.87;;;15.60;99.90;;;;;;4917898;29;20490;-70
2021/09/24 08:33:37;;;;;;;4.63;4.23;;;15.60;99.90;;;;;;4915885;29;21010;-70
2021/09/24 08:36:05;;;;;;;6.70;4.27;;;15.70;99.90;;;;;;4918331;29;20490;-71
2021/09/24 08:38:32;;;;;;;10.47;4.30;;;15.70;99.90;;;;;;4917613;29;20513;-71
2021/09/24 08:40:59;;;;;;;5.47;3.70;;;15.70;99.90;;;;;;4918033;29;20479;-71
2021/09/24 08:43:25;;;;;;;7.00;4.17;;;15.80;99.90;;;;;;4917785;29;20463;-72
2021/09/24 08:45:52;;;;;;;5.87;4.43;;;15.80;99.90;;;;;;4917753;29;20513;-72
2021/09/24 08:48:20;;;;;;;5.97;4.50;;;16.00;99.90;;;;;;4916964;29;20554;-74
2021/09/24 08:50:50;;;;;;;5.60;5.00;;;15.90;99.90;;;;;;4917968;29;20863;-74
2021/09/24 08:53:21;;;;;;;5.93;4.87;;;16.00;99.90;;;;;;4917472;29;20470;-73
2021/09/24 08:55:48;;;;;;;5.77;4.97;;;16.00;99.90;;;;;;4917654;29;20501;-72
2021/09/24 08:58:16;;;;;;;7.73;4.23;;;16.00;99.90;;;;;;4917096;29;20466;-72
2021/09/24 09:00:43;;;;;;;4.97;4.50;;;16.00;99.90;;;;;;4917235;29;21006;-72
2021/09/24 09:03:13;;;;;;;4.77;4.20;;;16.10;99.90;;;;;;4916107;29;20471;-72
2021/09/24 09:05:43;;;;;;;8.80;5.50;;;16.20;99.90;;;;;;4917943;29;20525;-72
2021/09/24 09:08:13;;;;;;;5.00;4.60;;;16.20;99.90;;;;;;4917258;29;20474;-72
2021/09/24 09:10:45;;;;;;;5.10;3.47;;;16.30;99.90;;;;;;4916937;29;20505;-72
2021/09/24 09:13:13;;;;;;;5.07;4.20;;;16.20;99.90;;;;;;4917442;29;20462;-71
2021/09/24 09:15:41;;;;;;;4.43;4.03;;;16.20;99.90;;;;;;4917232;29;20546;-72
2021/09/24 09:18:17;;;;;;;6.07;3.70;;;16.20;99.90;;;;;;4916337;29;20478;-72
2021/09/24 09:20:45;;;;;;;3.50;3.33;;;16.20;99.90;;;;;;4917094;29;20535;-72
2021/09/24 09:23:13;;;;;;;5.10;4.67;;;16.20;99.90;;;;;;4916604;29;20526;-71
2021/09/24 09:25:43;;;;;;;5.60;3.60;;;16.20;99.90;;;;;;4917223;29;20466;-72
2021/09/24 09:28:13;;;;;;;6.10;3.80;;;16.20;99.90;;;;;;4917171;29;20459;-72
2021/09/24 09:30:42;;;;;;;6.57;4.13;;;16.20;99.90;;;;;;4916435;29;20895;-72
2021/09/24 09:33:14;;;;;;;5.47;4.40;;;16.20;99.90;;;;;;4915898;29;20470;-71
2021/09/24 09:35:43;;;;;;;4.90;3.80;;;16.20;99.90;;;;;;4917313;29;20467;-72
2021/09/24 09:38:18;;;;;;;6.27;4.73;;;16.30;99.90;;;;;;4916738;29;20466;-71
2021/09/24 09:40:49;;;;;;;7.13;4.80;;;16.30;99.90;;;;;;4917158;29;20508;-72
2021/09/24 09:43:21;;;;;;;5.07;4.03;;;16.30;99.90;;;;;;4916442;29;20478;-72
2021/09/24 09:45:49;;;;;;;6.53;5.10;;;16.40;99.90;;;;;;4916972;29;20463;-72
2021/09/24 09:48:15;;;;;;;5.13;4.70;;;16.50;99.90;;;;;;4916528;29;20477;-72
2021/09/24 09:50:43;;;;;;;8.10;5.60;;;16.50;99.90;;;;;;4917211;29;21018;-72
2021/09/24 09:53:11;;;;;;;6.83;6.13;;;16.50;99.90;;;;;;4916136;29;20482;-72
2021/09/24 09:55:40;;;;;;;8.13;7.33;;;16.50;99.90;;;;;;4916512;29;21038;-72
2021/09/24 09:58:11;;;;;;;6.63;6.03;;;16.50;99.90;;;;;;4916481;29;20498;-72
2021/09/24 10:00:54;;;;;;;8.53;6.57;;;16.60;99.90;;;;;;4916311;29;20546;-72
2021/09/24 10:03:32;;;;;;;9.60;7.40;;;16.60;99.90;;;;;;4915222;29;20547;-72
2021/09/24 10:05:59;;;;;;;8.30;7.50;;;16.60;99.90;;;;;;4916835;29;20470;-72
2021/09/24 10:08:30;;;;;;;7.90;7.20;;;16.60;99.90;;;;;;4916700;29;20466;-72
2021/09/24 10:11:03;;;;;;;8.53;7.87;;;16.60;99.90;;;;;;4917304;29;20589;-72
2021/09/24 10:13:33;;;;;;;7.70;6.83;;;16.70;99.90;;;;;;4914155;29;20534;-72
2021/09/24 10:16:01;;;;;;;8.37;7.67;;;16.70;99.90;;;;;;4916368;29;20493;-73
2021/09/24 10:18:28;;;;;;;9.87;7.13;;;16.80;99.90;;;;;;4915477;29;20474;-73
2021/09/24 10:20:54;;;;;;;8.97;6.90;;;16.80;99.90;;;;;;4916742;29;20967;-72
2021/09/24 10:23:21;;;;;;;7.73;7.00;;;16.90;99.90;;;;;;4915771;29;20816;-71
2021/09/24 10:25:56;;;;;;;8.40;7.40;;;16.90;99.90;;;;;;4915737;29;20499;-71
2021/09/24 10:28:29;;;;;;;7.37;6.70;;;16.90;99.90;;;;;;4916284;29;20474;-71
2021/09/24 10:30:58;;;;;;;7.93;7.33;;;16.90;99.90;;;;;;4915794;29;20498;-72
2021/09/24 10:33:44;;;;;;;8.23;7.60;;;17.00;99.90;;;;;;4915175;29;20847;-71
2021/09/24 10:36:11;;;;;;;7.57;6.97;;;17.00;99.90;;;;;;4916227;29;20838;-74
2021/09/24 10:38:45;;;;;;;7.83;6.77;;;17.10;99.90;;;;;;4916198;29;20470;-72
2021/09/24 10:41:14;;;;;;;7.60;6.90;;;17.20;99.90;;;;;;4916280;29;20994;-72
2021/09/24 10:43:43;;;;;;;6.63;6.13;;;17.20;99.90;;;;;;4915872;29;20474;-71
2021/09/24 10:46:35;;;;;;;12.33;7.53;;;17.30;99.90;;;;;;4916570;29;20548;-72
2021/09/24 10:49:30;;;;;;;6.47;5.97;;;17.40;99.90;;;;;;4915056;29;20576;-72
2021/09/24 10:52:14;;;;;;;10.97;6.20;;;17.60;99.90;;;;;;4915750;29;21003;-71
2021/09/24 10:54:54;;;;;;;7.10;5.70;;;17.60;99.90;;;;;;4916091;29;20521;-72
2021/09/24 10:57:21;;;;;;;8.53;5.43;;;17.60;99.90;;;;;;4918508;29;20588;-72
2021/09/24 10:59:48;;;;;;;5.47;5.07;;;17.60;99.90;;;;;;4919952;29;20462;-72
2021/09/24 11:02:39;;;;;;;6.30;5.10;;;17.70;99.90;;;;;;4919065;29;21019;-74
2021/09/24 11:05:09;;;;;;;4.97;4.57;;;17.80;99.90;;;;;;4920328;29;20876;-74
2021/09/24 11:07:36;;;;;;;4.23;4.00;;;17.80;99.90;;;;;;4919767;29;20876;-73
2021/09/24 11:10:06;;;;;;;6.17;4.00;;;17.80;99.90;;;;;;4917626;29;20486;-74
2021/09/24 11:12:33;;;;;;;6.23;4.00;;;17.90;99.90;;;;;;4919403;29;20845;-73
2021/09/24 11:15:08;;;;;;;5.53;4.57;;;17.90;99.90;;;;;;4919574;29;20558;-70
2021/09/24 11:17:43;;;;;;;5.17;3.57;;;17.90;99.90;;;;;;4918134;29;20485;-71
2021/09/24 11:20:31;;;;;;;4.60;4.23;;;17.80;99.90;;;;;;4918978;29;20589;-71
2021/09/24 11:22:58;;;;;;;4.33;4.00;;;17.70;99.90;;;;;;4919065;29;20525;-70
2021/09/24 11:25:25;;;;;;;6.83;3.77;;;17.60;99.90;;;;;;4919403;29;20470;-71
2021/09/24 11:27:54;;;;;;;4.83;4.13;;;17.60;99.90;;;;;;4918920;29;20545;-71
2021/09/24 11:30:23;;;;;;;4.60;4.20;;;17.60;99.90;;;;;;4918980;29;20552;-71
2021/09/24 11:32:52;;;;;;;4.80;4.07;;;17.60;99.90;;;;;;4918006;29;20462;-71
2021/09/24 11:35:22;;;;;;;7.57;4.30;;;17.60;99.90;;;;;;4919059;29;20820;-71
2021/09/24 11:37:49;;;;;;;3.70;3.60;;;17.60;99.90;;;;;;4918857;29;20494;-71
2021/09/24 11:40:18;;;;;;;4.30;3.90;;;17.70;99.90;;;;;;4919065;29;20474;-71
2021/09/24 11:42:46;;;;;;;3.50;3.30;;;17.70;99.90;;;;;;4918575;29;20545;-71
2021/09/24 11:45:15;;;;;;;8.80;3.93;;;17.80;99.90;;;;;;4917761;29;20497;-71
2021/09/24 11:47:44;;;;;;;3.90;3.50;;;17.80;99.90;;;;;;4918115;29;20466;-70
2021/09/24 11:50:15;;;;;;;3.80;3.50;;;17.80;99.90;;;;;;4918918;29;20557;-71
2021/09/24 11:52:44;;;;;;;5.20;4.13;;;17.90;99.90;;;;;;4918534;29;20466;-72
2021/09/24 11:55:21;;;;;;;3.50;3.33;;;18.00;99.90;;;;;;4918790;29;20466;-72
2021/09/24 11:58:04;;;;;;;3.50;3.20;;;18.00;99.90;;;;;;4918765;29;20474;-73
2021/09/24 12:00:33;;;;;;;4.40;4.00;;;18.00;99.90;;;;;;4918600;29;20529;-73
2021/09/24 12:03:20;;;;;;;5.53;4.00;;;18.00;99.90;;;;;;4917534;29;20470;-73
2021/09/24 12:05:58;;;;;;;5.83;3.70;;;18.00;99.90;;;;;;4918881;29;20454;-73
2021/09/24 12:08:27;;;;;;;3.70;3.40;;;18.10;99.90;;;;;;4917313;29;20919;-73
2021/09/24 12:11:04;;;;;;;8.20;4.03;;;18.20;99.90;;;;;;4918562;29;20494;-73
2021/09/24 12:13:37;;;;;;;3.83;3.53;;;18.30;99.90;;;;;;4918132;29;20489;-73
2021/09/24 12:16:05;;;;;;;4.30;4.00;;;18.40;99.90;;;;;;4918198;29;20530;-72
2021/09/24 12:18:50;;;;;;;6.27;3.43;;;18.40;99.90;;;;;;4917519;29;20506;-73
2021/09/24 12:21:21;;;;;;;6.13;4.13;;;18.50;99.90;;;;;;4899611;29;20487;-73
2021/09/24 12:23:48;;;;;;;6.30;3.70;;;18.60;99.90;;;;;;4898813;29;20489;-72
2021/09/24 12:26:16;;;;;;;5.70;3.90;;;18.50;99.90;;;;;;4899830;29;20463;-72
2021/09/24 12:28:57;;;;;;;9.20;4.30;;;18.50;99.90;;;;;;4899146;29;20562;-72
2021/09/24 12:31:43;;;;;;;4.40;4.00;;;18.50;99.90;;;;;;4899510;29;20490;-72
2021/09/24 12:34:12;;;;;;;4.30;4.00;;;18.50;99.90;;;;;;4898010;29;20479;-72
2021/09/24 12:36:58;;;;;;;4.50;4.20;;;18.50;99.90;;;;;;4899602;29;20468;-72
2021/09/24 12:39:28;;;;;;;3.63;3.43;;;18.50;99.90;;;;;;4899476;29;20451;-71
2021/09/24 12:41:57;;;;;;;4.53;4.17;;;18.40;99.90;;;;;;4899172;29;20856;-71
2021/09/24 12:44:24;;;;;;;7.80;4.00;;;18.40;99.90;;;;;;4898823;29;20484;-71
2021/09/24 12:46:54;;;;;;;7.47;5.07;;;18.40;99.90;;;;;;4898863;29;20479;-71
2021/09/24 12:49:21;;;;;;;11.33;4.80;;;18.40;99.90;;;;;;4898487;29;20474;-70
2021/09/24 12:51:51;;;;;;;6.10;4.80;;;18.40;99.90;;;;;;4899482;29;20484;-71
2021/09/24 12:54:19;;;;;;;3.80;3.63;;;18.30;99.90;;;;;;4898917;29;20471;-71
2021/09/24 12:56:46;;;;;;;5.13;4.30;;;18.30;99.90;;;;;;4898961;29;20505;-72
2021/09/24 12:59:13;;;;;;;5.00;4.57;;;18.30;99.90;;;;;;4915318;29;20951;-71
2021/09/24 13:01:40;;;;;;;10.97;4.97;;;18.30;99.90;;;;;;4917364;29;20508;-71
2021/09/24 13:04:09;;;;;;;6.00;4.50;;;18.40;99.90;;;;;;4916503;29;20466;-72
2021/09/24 13:06:36;;;;;;;4.90;4.40;;;18.40;99.90;;;;;;4917423;29;20473;-72
2021/09/24 13:09:03;;;;;;;5.20;4.70;;;18.50;99.90;;;;;;4917340;29;20463;-72
2021/09/24 13:11:34;;;;;;;6.70;4.40;;;18.50;99.90;;;;;;4917235;29;20834;-73
2021/09/24 13:14:04;;;;;;;7.03;4.47;;;18.60;99.90;;;;;;4917015;29;20817;-73
2021/09/24 13:16:32;;;;;;;4.60;4.20;;;18.60;99.90;;;;;;4917123;29;20561;-73
2021/09/24 13:19:00;;;;;;;4.60;4.23;;;18.70;99.90;;;;;;4915884;29;20490;-72
2021/09/24 13:21:31;;;;;;;5.80;4.00;;;18.70;99.90;;;;;;4917482;29;21010;-72
2021/09/24 13:23:59;;;;;;;6.90;4.27;;;18.80;99.90;;;;;;4916719;29;20482;-72
2021/09/24 13:26:26;;;;;;;5.33;4.87;;;18.90;99.90;;;;;;4917186;29;20478;-72
2021/09/24 13:28:54;;;;;;;4.73;4.00;;;19.00;99.90;;;;;;4917059;29;20529;-72
2021/09/24 13:31:21;;;;;;;3.80;3.63;;;19.00;99.90;;;;;;4923620;29;20518;-72
2021/09/24 13:33:48;;;;;;;7.23;4.40;;;19.10;99.90;;;;;;4916031;29;20541;-73
2021/09/24 13:36:15;;;;;;;5.20;4.77;;;19.20;99.90;;;;;;4917436;29;20478;-73
2021/09/24 13:38:42;;;;;;;4.70;4.13;;;19.20;99.90;;;;;;4916635;29;20486;-73
2021/09/24 13:41:09;;;;;;;6.70;4.03;;;19.20;99.90;;;;;;4917393;29;20501;-72
2021/09/24 13:43:36;;;;;;;4.37;4.03;;;19.20;99.90;;;;;;4916439;29;20955;-72
2021/09/24 13:46:04;;;;;;;4.37;3.27;;;19.10;99.90;;;;;;4917166;29;20484;-72
2021/09/24 13:48:32;;;;;;;6.00;4.70;;;19.10;99.90;;;;;;4915868;29;20538;-72
2021/09/24 13:50:59;;;;;;;4.37;3.97;;;19.10;99.90;;;;;;4916846;29;20497;-72
2021/09/24 13:53:25;;;;;;;4.33;4.00;;;19.10;99.90;;;;;;4916458;29;20466;-72
2021/09/24 13:55:53;;;;;;;3.93;3.70;;;19.10;99.90;;;;;;4916499;29;20490;-72
2021/09/24 13:58:20;;;;;;;4.47;4.07;;;19.10;99.90;;;;;;4916413;29;20557;-72
2021/09/24 14:00:46;;;;;;;5.80;3.93;;;19.00;99.90;;;;;;4917164;29;20858;-72
2021/09/24 14:03:14;;;;;;;4.00;3.80;;;19.00;99.90;;;;;;4915149;29;20549;-71
2021/09/24 14:05:41;;;;;;;4.10;3.80;;;19.00;99.90;;;;;;4916385;29;20470;-72
2021/09/24 14:08:08;;;;;;;5.17;4.10;;;18.90;99.90;;;;;;4916218;29;20518;-71
2021/09/24 14:10:34;;;;;;;4.87;4.57;;;18.90;99.90;;;;;;4916543;29;20486;-72
2021/09/24 14:13:01;;;;;;;4.07;3.67;;;18.80;99.90;;;;;;4915746;29;20842;-72
2021/09/24 14:15:28;;;;;;;4.43;3.97;;;18.80;99.90;;;;;;4916260;29;20822;-72
2021/09/24 14:17:55;;;;;;;3.93;3.73;;;18.80;99.90;;;;;;4915115;29;20561;-71
2021/09/24 14:20:23;;;;;;;4.27;3.90;;;18.80;99.90;;;;;;4915946;29;20529;-71
2021/09/24 14:22:51;;;;;;;6.37;4.30;;;18.80;99.90;;;;;;4915948;29;20470;-72
2021/09/24 14:25:18;;;;;;;4.20;3.90;;;18.80;99.90;;;;;;4916537;29;20526;-72
2021/09/24 14:27:46;;;;;;;4.60;4.20;;;18.80;99.90;;;;;;4915791;29;20956;-73
2021/09/24 14:30:15;;;;;;;4.43;4.07;;;18.80;99.90;;;;;;4915602;29;20550;-73
2021/09/24 14:32:42;;;;;;;6.60;4.37;;;18.70;99.90;;;;;;4914427;29;20479;-73
2021/09/24 14:35:10;;;;;;;4.50;4.30;;;18.70;99.90;;;;;;4916301;29;20882;-73
2021/09/24 14:37:39;;;;;;;6.00;4.87;;;18.70;99.90;;;;;;4916131;29;20494;-73
2021/09/24 14:40:08;;;;;;;4.73;4.53;;;18.70;99.90;;;;;;4916147;29;20481;-73
2021/09/24 14:42:35;;;;;;;5.30;4.90;;;18.80;99.90;;;;;;4915809;29;20484;-73
2021/09/24 14:45:02;;;;;;;5.67;5.20;;;18.80;99.90;;;;;;4915910;29;20478;-73
2021/09/24 14:47:28;;;;;;;6.53;5.03;;;18.80;99.90;;;;;;4915359;29;20467;-73
2021/09/24 14:49:55;;;;;;;5.00;4.50;;;18.70;99.90;;;;;;4916437;29;20470;-73
2021/09/24 14:52:22;;;;;;;6.30;5.70;;;18.70;99.90;;;;;;4916050;29;20493;-73
2021/09/24 14:54:50;;;;;;;7.97;5.20;;;18.70;99.90;;;;;;4915947;29;20497;-73
2021/09/24 14:57:17;;;;;;;5.80;5.40;;;18.70;99.90;;;;;;4916257;29;20542;-71
2021/09/24 14:59:43;;;;;;;8.07;5.00;;;18.70;99.90;;;;;;4916663;29;20467;-74
2021/09/24 15:02:11;;;;;;;5.93;5.30;;;18.60;99.90;;;;;;4915049;29;20541;-73
2021/09/24 15:04:38;;;;;;;9.30;6.13;;;18.60;99.90;;;;;;4915296;29;20470;-72
2021/09/24 15:07:05;;;;;;;7.10;5.83;;;18.60;99.90;;;;;;4915831;29;20570;-71
2021/09/24 15:09:32;;;;;;;6.30;5.80;;;18.50;99.90;;;;;;4915391;29;20582;-72
2021/09/24 15:12:00;;;;;;;5.53;5.13;;;18.60;99.90;;;;;;4915881;29;20494;-72
2021/09/24 15:14:30;;;;;;;11.63;5.80;;;18.60;99.90;;;;;;4915615;29;20471;-72
2021/09/24 15:16:57;;;;;;;8.43;6.03;;;18.50;99.90;;;;;;4915334;29;20467;-72
2021/09/24 15:19:24;;;;;;;6.33;5.83;;;18.50;99.90;;;;;;4915127;29;20490;-72
2021/09/24 15:21:51;;;;;;;9.67;7.00;;;18.50;99.90;;;;;;4915801;29;21291;-72
2021/09/24 15:24:18;;;;;;;8.97;6.23;;;18.50;99.90;;;;;;4915627;29;20570;-72
2021/09/24 15:26:45;;;;;;;8.27;7.43;;;18.50;99.90;;;;;;4915335;29;20904;-71
2021/09/24 15:29:13;;;;;;;6.97;6.43;;;18.40;99.90;;;;;;4915404;29;20509;-72
2021/09/24 15:31:40;;;;;;;9.33;7.77;;;18.40;99.90;;;;;;4915673;29;20902;-72
2021/09/24 15:34:07;;;;;;;9.17;7.00;;;18.40;99.90;;;;;;4914773;29;20526;-72
2021/09/24 15:36:33;;;;;;;8.30;7.60;;;18.40;99.90;;;;;;4915920;29;20878;-72
2021/09/24 15:39:01;;;;;;;8.50;7.80;;;18.30;99.90;;;;;;4915394;29;20569;-72
2021/09/24 15:41:27;;;;;;;9.20;8.27;;;18.30;99.90;;;;;;4915527;29;20572;-71
2021/09/24 15:43:54;;;;;;;8.67;7.70;;;18.30;99.90;;;;;;4919097;29;20537;-70
2021/09/24 15:46:24;;;;;;;9.90;9.00;;;18.20;99.90;;;;;;4918765;29;20470;-69
2021/09/24 15:48:51;;;;;;;9.80;8.87;;;18.20;99.90;;;;;;4917872;29;20569;-70
2021/09/24 15:51:18;;;;;;;12.40;9.30;;;18.20;99.90;;;;;;4918728;29;20983;-69
2021/09/24 15:53:45;;;;;;;13.53;9.57;;;18.20;99.90;;;;;;4918360;29;20470;-70
2021/09/24 15:56:12;;;;;;;9.77;8.77;;;18.10;99.90;;;;;;4919059;29;20470;-70
2021/09/24 15:58:39;;;;;;;10.90;9.80;;;18.10;99.90;;;;;;4918512;29;20490;-70
2021/09/24 16:01:05;;;;;;;10.80;9.53;;;18.10;99.90;;;;;;4918247;29;21061;-70
2021/09/24 16:03:33;;;;;;;12.03;9.83;;;18.10;99.90;;;;;;4917516;29;20884;-71
2021/09/24 16:06:00;;;;;;;13.63;10.23;;;18.00;99.90;;;;;;4918628;29;20470;-70
2021/09/24 16:08:27;;;;;;;11.63;10.43;;;18.00;99.90;;;;;;4918655;29;20466;-71
2021/09/24 16:10:54;;;;;;;14.20;10.47;;;18.00;99.90;;;;;;4918296;29;20818;-71
2021/09/24 16:13:21;;;;;;;12.60;9.97;;;18.00;99.90;;;;;;4918004;29;20471;-71
2021/09/24 16:15:48;;;;;;;12.50;11.20;;;18.00;99.90;;;;;;4917540;29;20470;-71
2021/09/24 16:18:14;;;;;;;11.87;10.37;;;18.00;99.90;;;;;;4906915;29;20490;-72
2021/09/24 16:20:43;;;;;;;11.13;10.00;;;18.00;99.90;;;;;;4911235;29;20520;-71
2021/09/24 16:23:09;;;;;;;14.13;10.90;;;18.00;99.90;;;;;;4916231;29;20877;-72
2021/09/24 16:25:36;;;;;;;13.97;11.33;;;18.00;99.90;;;;;;4910822;29;20482;-72
2021/09/24 16:28:03;;;;;;;18.03;12.40;;;18.00;99.90;;;;;;4914711;29;20494;-72
2021/09/24 16:30:30;;;;;;;13.17;11.77;;;17.90;99.90;;;;;;4915046;29;20620;-71
2021/09/24 16:32:57;;;;;;;19.20;11.40;;;17.90;99.90;;;;;;4914225;29;20534;-72
2021/09/24 16:35:23;;;;;;;15.67;11.70;;;17.90;99.90;;;;;;4895233;29;20459;-72
2021/09/24 16:37:52;;;;;;;17.90;11.57;;;17.90;99.90;;;;;;4914550;29;20467;-73
2021/09/24 16:40:18;;;;;;;15.33;12.60;;;17.80;99.90;;;;;;4915214;29;20539;-72
2021/09/24 16:42:46;;;;;;;20.47;14.27;;;17.80;99.90;;;;;;4913685;29;20462;-73
2021/09/24 16:45:15;;;;;;;20.10;12.23;;;17.80;99.90;;;;;;4914340;29;20577;-73
2021/09/24 16:47:43;;;;;;;16.77;13.30;;;17.80;99.90;;;;;;4904496;29;20527;-72
2021/09/24 16:50:12;;;;;;;21.30;14.63;;;17.90;99.90;;;;;;4906419;29;20455;-73